Time;durP1;ratioP1;P1;durP2;ratioP2;P2;SDS_P1;SDS_P2;PMS_P1;PMS_P2;Temp;Humidity;BMP_temperature;BMP_pressure;BME280_temperature;BME280_humidity;BME280_pressure;Samples;Min_cycle;Max_cycle;Signal;HPM_P1;HPM_P2
2023/10/17 00:00:39;;;;;;;0.73;0.60;;;10.00;77.80;;;;;;5065460;28;20033;-64
2023/10/17 00:03:11;;;;;;;0.52;0.40;;;10.00;77.70;;;;;;5067375;28;20048;-64
2023/10/17 00:05:37;;;;;;;0.57;0.57;;;10.00;77.80;;;;;;5061369;28;20036;-64
2023/10/17 00:08:05;;;;;;;1.23;0.65;;;10.00;77.90;;;;;;5066917;28;20527;-64
2023/10/17 00:10:35;;;;;;;0.47;0.30;;;10.00;78.00;;;;;;5068345;28;20487;-64
2023/10/17 00:13:23;;;;;;;0.40;0.40;;;10.00;78.00;;;;;;5064870;28;20098;-64
2023/10/17 00:15:49;;;;;;;1.38;0.60;;;10.00;78.00;;;;;;5050731;28;20124;-63
2023/10/17 00:18:18;;;;;;;7.80;1.10;;;10.00;78.20;;;;;;5068020;28;20120;-64
2023/10/17 00:20:44;;;;;;;0.98;0.52;;;10.10;78.20;;;;;;5063143;28;20496;-62
2023/10/17 00:23:20;;;;;;;0.45;0.45;;;10.10;78.10;;;;;;5067549;28;20059;-62
2023/10/17 00:25:49;;;;;;;2.63;0.80;;;10.10;78.20;;;;;;5061922;28;20032;-62
2023/10/17 00:28:20;;;;;;;0.60;0.60;;;10.10;78.30;;;;;;5057573;28;20037;-62
2023/10/17 00:30:48;;;;;;;1.00;0.57;;;10.10;78.30;;;;;;5048278;28;20052;-64
2023/10/17 00:33:15;;;;;;;5.15;1.25;;;10.10;78.40;;;;;;5056905;28;20037;-64
2023/10/17 00:35:47;;;;;;;0.82;0.68;;;10.10;78.50;;;;;;5054804;28;20028;-64
2023/10/17 00:38:15;;;;;;;1.30;0.77;;;10.20;78.50;;;;;;5059957;28;20028;-64
2023/10/17 00:43:13;;;;;;;1.30;0.80;;;10.20;78.50;;;;;;5058852;28;20044;-64
2023/10/17 00:45:40;;;;;;;1.15;0.52;;;10.20;78.50;;;;;;5058272;28;20509;-62
2023/10/17 00:48:17;;;;;;;1.02;0.43;;;10.30;78.50;;;;;;5059280;28;20029;-62
2023/10/17 00:50:45;;;;;;;2.30;0.85;;;10.30;78.50;;;;;;5056587;28;20035;-62
2023/10/17 00:53:11;;;;;;;0.63;0.50;;;10.30;78.30;;;;;;5064979;28;20028;-64
2023/10/17 00:55:37;;;;;;;2.97;0.70;;;10.30;78.30;;;;;;5071405;28;20035;-64
2023/10/17 00:58:06;;;;;;;1.42;0.60;;;10.30;78.40;;;;;;5071772;28;20541;-64
2023/10/17 01:00:36;;;;;;;0.55;0.45;;;10.30;78.50;;;;;;5060858;28;20365;-64
2023/10/17 01:03:10;;;;;;;0.60;0.60;;;10.30;78.50;;;;;;5067859;28;20052;-64
2023/10/17 01:06:09;;;;;;;0.73;0.65;;;10.40;78.60;;;;;;5061799;28;20154;-64
2023/10/17 01:08:50;;;;;;;2.83;0.80;;;10.40;78.60;;;;;;5069712;28;20054;-64
2023/10/17 01:11:22;;;;;;;1.17;0.65;;;10.30;78.60;;;;;;5069943;28;20121;-62
2023/10/17 01:13:54;;;;;;;0.75;0.52;;;10.30;78.70;;;;;;5064426;28;20057;-62
2023/10/17 01:16:21;;;;;;;0.77;0.40;;;10.30;78.70;;;;;;5064025;28;20020;-62
2023/10/17 01:18:47;;;;;;;0.65;0.47;;;10.30;78.80;;;;;;5066239;28;20124;-62
2023/10/17 01:21:18;;;;;;;0.70;0.55;;;10.30;78.80;;;;;;5066893;28;20024;-62
2023/10/17 01:23:48;;;;;;;0.70;0.50;;;10.30;78.80;;;;;;5068541;28;20060;-62
2023/10/17 01:26:20;;;;;;;0.57;0.57;;;10.30;78.80;;;;;;5068889;28;20040;-62
2023/10/17 01:28:53;;;;;;;1.48;0.82;;;10.30;78.90;;;;;;5065531;28;20037;-62
2023/10/17 01:31:22;;;;;;;1.13;0.55;;;10.30;78.90;;;;;;5068665;28;20211;-62
2023/10/17 01:33:54;;;;;;;0.32;0.32;;;10.30;79.50;;;;;;5065029;28;20025;-62
2023/10/17 01:36:21;;;;;;;1.75;0.77;;;10.40;79.00;;;;;;5063944;28;20047;-62
2023/10/17 01:38:49;;;;;;;0.68;0.57;;;10.30;78.90;;;;;;5063570;28;20033;-62
2023/10/17 01:41:16;;;;;;;0.55;0.55;;;10.40;79.00;;;;;;5060084;28;20052;-62
2023/10/17 01:43:45;;;;;;;2.75;1.25;;;10.40;79.10;;;;;;5065164;28;20387;-64
2023/10/17 01:46:15;;;;;;;0.93;0.52;;;10.40;79.10;;;;;;5063406;28;20028;-64
2023/10/17 01:48:48;;;;;;;0.63;0.55;;;10.40;79.20;;;;;;5061767;28;20025;-66
2023/10/17 01:51:19;;;;;;;0.90;0.43;;;10.40;79.10;;;;;;5063845;28;20024;-66
2023/10/17 01:53:50;;;;;;;2.00;0.80;;;10.40;79.10;;;;;;5053401;28;20088;-66
2023/10/17 01:56:26;;;;;;;1.65;1.20;;;10.40;79.10;;;;;;5065340;28;20340;-66
2023/10/17 01:59:04;;;;;;;0.95;0.77;;;10.40;79.20;;;;;;5063559;28;20021;-64
2023/10/17 02:01:31;;;;;;;2.92;0.68;;;10.50;79.30;;;;;;5069999;28;20041;-66
2023/10/17 02:04:03;;;;;;;0.65;0.50;;;10.50;79.20;;;;;;5068330;28;20143;-66
2023/10/17 02:06:34;;;;;;;0.80;0.80;;;10.50;79.20;;;;;;5050585;28;20127;-66
2023/10/17 02:09:00;;;;;;;0.73;0.73;;;10.50;79.10;;;;;;5063372;28;20048;-64
2023/10/17 02:11:26;;;;;;;0.60;0.57;;;10.50;79.20;;;;;;5070075;28;20119;-64
2023/10/17 02:13:56;;;;;;;3.15;0.68;;;10.50;79.20;;;;;;5053121;28;20021;-64
2023/10/17 02:16:34;;;;;;;0.98;0.50;;;10.50;79.30;;;;;;5064741;28;20117;-66
2023/10/17 02:18:59;;;;;;;0.73;0.73;;;10.50;79.30;;;;;;5065237;28;20025;-66
2023/10/17 02:21:28;;;;;;;3.05;0.68;;;10.50;79.30;;;;;;5068643;28;20786;-66
2023/10/17 02:23:55;;;;;;;0.70;0.70;;;10.50;79.30;;;;;;5068224;28;20040;-65
2023/10/17 02:26:22;;;;;;;0.98;0.70;;;10.50;79.40;;;;;;5069149;28;20424;-66
2023/10/17 02:28:59;;;;;;;1.05;0.65;;;10.50;79.30;;;;;;5066934;28;20115;-65
2023/10/17 02:31:29;;;;;;;1.45;0.80;;;10.50;79.30;;;;;;5069575;28;20369;-66
2023/10/17 02:33:58;;;;;;;0.50;0.50;;;10.50;79.30;;;;;;5068204;28;20048;-66
2023/10/17 02:36:26;;;;;;;5.35;0.88;;;10.50;79.30;;;;;;5043937;28;20049;-64
2023/10/17 02:38:52;;;;;;;0.88;0.80;;;10.50;79.30;;;;;;5066346;28;20055;-64
2023/10/17 02:41:31;;;;;;;1.45;0.55;;;10.50;79.30;;;;;;5067260;28;20035;-64
2023/10/17 02:43:58;;;;;;;0.82;0.65;;;10.50;79.30;;;;;;5052152;28;20353;-64
2023/10/17 02:46:27;;;;;;;0.60;0.52;;;10.50;79.30;;;;;;5063834;28;20395;-64
2023/10/17 02:48:54;;;;;;;1.23;0.88;;;10.50;79.30;;;;;;5070431;28;20046;-64
2023/10/17 02:53:53;;;;;;;0.80;0.60;;;10.50;79.30;;;;;;5069596;28;20025;-64
2023/10/17 02:56:19;;;;;;;0.55;0.45;;;10.50;79.40;;;;;;5065574;28;20025;-66
2023/10/17 02:59:17;;;;;;;3.20;0.90;;;10.50;79.40;;;;;;5066141;28;20025;-66
2023/10/17 03:01:52;;;;;;;1.17;0.80;;;10.40;79.30;;;;;;5068703;28;20048;-64
2023/10/17 03:04:23;;;;;;;0.70;0.50;;;10.50;79.50;;;;;;5064191;28;20372;-66
2023/10/17 03:06:54;;;;;;;2.00;0.80;;;10.40;79.50;;;;;;5057199;28;20061;-66
2023/10/17 03:14:25;;;;;;;0.60;0.60;;;10.50;79.50;;;;;;5064268;28;20071;-66
2023/10/17 03:16:54;;;;;;;0.60;0.52;;;10.50;79.50;;;;;;5060961;28;20029;-65
2023/10/17 03:19:26;;;;;;;0.60;0.60;;;10.50;80.10;;;;;;5051218;28;20031;-64
2023/10/17 03:21:59;;;;;;;1.35;1.05;;;10.50;79.50;;;;;;5065732;28;20032;-64
2023/10/17 03:24:41;;;;;;;0.60;0.60;;;10.50;79.50;;;;;;5042154;28;20111;-62
2023/10/17 03:27:08;;;;;;;0.70;0.60;;;10.50;79.60;;;;;;5060516;28;20076;-64
2023/10/17 03:29:34;;;;;;;1.15;1.05;;;10.50;79.60;;;;;;5058050;28;20036;-64
2023/10/17 03:32:04;;;;;;;1.95;0.82;;;10.50;79.60;;;;;;5041491;28;20056;-64
2023/10/17 03:34:36;;;;;;;1.33;1.10;;;10.40;79.50;;;;;;5062340;28;20391;-64
2023/10/17 03:42:44;;;;;;;1.38;0.75;;;10.40;79.60;;;;;;5058673;28;20025;-64
2023/10/17 03:45:16;;;;;;;1.77;0.70;;;10.40;79.60;;;;;;5064417;28;20036;-64
2023/10/17 03:47:53;;;;;;;3.78;0.90;;;10.40;79.60;;;;;;5060492;28;20030;-64
2023/10/17 03:53:14;;;;;;;1.98;1.00;;;10.40;79.70;;;;;;5065088;28;20063;-62
2023/10/17 03:55:44;;;;;;;0.90;0.80;;;10.40;79.70;;;;;;5065328;28;20028;-62
2023/10/17 04:00:48;;;;;;;0.60;0.50;;;10.40;79.70;;;;;;5058536;28;20040;-64
2023/10/17 04:03:25;;;;;;;2.58;1.05;;;10.30;79.60;;;;;;5068444;28;20212;-62
2023/10/17 04:06:01;;;;;;;1.13;0.90;;;10.40;79.50;;;;;;5039703;28;20039;-64
2023/10/17 04:08:31;;;;;;;1.40;0.93;;;10.30;79.40;;;;;;5057150;28;20041;-62
2023/10/17 04:11:17;;;;;;;1.20;0.60;;;10.40;79.60;;;;;;5060358;28;20430;-62
2023/10/17 04:13:50;;;;;;;1.73;0.70;;;10.40;79.60;;;;;;5064209;28;20063;-62
2023/10/17 04:16:32;;;;;;;1.77;1.20;;;10.30;79.60;;;;;;5049429;28;20032;-62
2023/10/17 04:19:00;;;;;;;1.30;0.90;;;10.30;79.50;;;;;;5064995;28;20275;-62
2023/10/17 04:21:36;;;;;;;3.35;1.23;;;10.30;79.60;;;;;;5058663;28;20032;-62
2023/10/17 04:24:05;;;;;;;1.50;1.00;;;10.30;79.70;;;;;;5041743;28;20510;-62
2023/10/17 04:26:35;;;;;;;3.75;1.35;;;10.30;79.70;;;;;;5059830;28;20032;-62
2023/10/17 04:29:11;;;;;;;1.27;0.90;;;10.30;80.20;;;;;;5046765;28;20032;-62
2023/10/17 04:31:38;;;;;;;4.20;0.88;;;10.30;79.60;;;;;;5055115;28;20081;-64
2023/10/17 04:34:07;;;;;;;1.15;0.90;;;10.30;79.60;;;;;;5067439;28;20025;-66
2023/10/17 04:36:39;;;;;;;2.53;0.98;;;10.30;79.60;;;;;;5049525;28;20471;-66
2023/10/17 04:42:04;;;;;;;1.85;1.52;;;10.30;80.20;;;;;;5068019;28;20045;-66
2023/10/17 04:44:36;;;;;;;3.00;1.05;;;10.30;79.70;;;;;;5064988;28;20724;-66
2023/10/17 04:49:35;;;;;;;1.10;1.00;;;10.30;79.80;;;;;;5062801;28;20051;-64
2023/10/17 04:52:17;;;;;;;;;;;10.30;79.80;;;;;;5061526;28;20025;-64
2023/10/17 04:54:43;;;;;;;3.45;1.48;;;10.20;79.70;;;;;;5063661;28;20371;-62
2023/10/17 04:57:15;;;;;;;3.08;1.70;;;10.20;79.90;;;;;;5034503;28;20024;-64
2023/10/17 04:59:51;;;;;;;5.45;2.60;;;10.20;79.80;;;;;;5068871;28;20059;-64
2023/10/17 06:18:52;;;;;;;2.97;2.15;;;9.90;80.60;;;;;;5066329;28;20452;-65
2023/10/17 06:21:19;;;;;;;3.85;2.28;;;10.00;80.60;;;;;;5062200;28;20040;-65
2023/10/17 06:34:14;;;;;;;5.95;2.17;;;9.90;81.20;;;;;;5065268;28;20045;-65
2023/10/17 06:36:41;;;;;;;5.15;1.80;;;9.90;80.70;;;;;;5049522;28;20037;-65
2023/10/17 06:39:16;;;;;;;2.50;1.70;;;9.90;80.70;;;;;;5039789;28;20097;-63
2023/10/17 06:41:44;;;;;;;4.32;2.13;;;9.90;80.70;;;;;;5066999;28;20020;-63
2023/10/17 06:44:11;;;;;;;2.47;1.50;;;9.90;80.70;;;;;;5067312;28;20044;-63
2023/10/17 06:46:40;;;;;;;1.75;1.45;;;9.90;80.80;;;;;;5066098;28;20395;-63
2023/10/17 06:49:17;;;;;;;5.53;1.98;;;9.90;80.80;;;;;;5064253;28;20036;-63
2023/10/17 06:51:50;;;;;;;2.80;1.50;;;9.90;80.80;;;;;;5046200;28;20033;-65
2023/10/17 06:54:24;;;;;;;2.28;1.27;;;9.90;80.80;;;;;;5066843;28;20032;-65
2023/10/17 06:56:54;;;;;;;3.97;2.33;;;9.90;80.80;;;;;;5049283;28;20343;-65
2023/10/17 06:59:35;;;;;;;3.00;1.92;;;9.90;80.80;;;;;;5066296;28;20079;-65
2023/10/17 07:02:10;;;;;;;3.08;1.77;;;9.90;80.80;;;;;;5066930;28;20502;-65
2023/10/17 07:04:37;;;;;;;2.15;1.48;;;9.90;80.90;;;;;;5068268;28;20077;-65
2023/10/17 07:07:04;;;;;;;3.72;1.92;;;9.90;80.80;;;;;;5063400;28;20517;-65
2023/10/17 07:09:37;;;;;;;3.42;1.50;;;9.90;80.80;;;;;;5066285;28;20036;-64
2023/10/17 07:12:04;;;;;;;4.25;1.77;;;10.00;80.90;;;;;;5065282;28;20082;-64
2023/10/17 07:14:30;;;;;;;2.20;1.67;;;10.00;80.80;;;;;;5067174;28;20047;-64
2023/10/17 07:17:00;;;;;;;4.78;1.85;;;10.00;80.80;;;;;;5066030;28;20040;-64
2023/10/17 07:24:48;;;;;;;9.73;2.08;;;10.10;80.70;;;;;;5064113;28;20036;-64
2023/10/17 07:27:27;;;;;;;5.18;1.90;;;10.20;80.60;;;;;;5064979;28;20025;-65
2023/10/17 07:30:00;;;;;;;2.63;2.00;;;10.20;80.60;;;;;;5068489;28;20493;-65
2023/10/17 07:32:33;;;;;;;1.70;1.55;;;10.30;80.60;;;;;;5064804;28;20037;-65
2023/10/17 07:35:01;;;;;;;2.05;1.45;;;10.30;80.50;;;;;;5065215;28;20024;-65
2023/10/17 07:37:27;;;;;;;1.85;1.58;;;10.40;81.10;;;;;;5062589;28;20107;-65
2023/10/17 07:40:31;;;;;;;2.78;1.55;;;10.40;80.40;;;;;;5062026;28;20103;-65
2023/10/17 07:42:46;;;;;;;4.50;1.80;;;10.50;80.40;;;;;;5045929;28;20033;-65
2023/10/17 07:45:14;;;;;;;4.22;1.80;;;10.50;80.40;;;;;;5067860;28;20107;-65
2023/10/17 07:47:51;;;;;;;1.73;1.40;;;10.60;80.40;;;;;;5067940;28;20095;-65
2023/10/17 07:50:17;;;;;;;4.78;1.83;;;10.70;80.40;;;;;;5058528;28;20452;-65
2023/10/17 07:52:50;;;;;;;3.30;1.85;;;10.70;80.30;;;;;;5055476;28;20472;-65
2023/10/17 07:55:18;;;;;;;2.42;1.70;;;10.80;80.30;;;;;;5062774;28;20562;-65
2023/10/17 07:57:46;;;;;;;2.15;1.55;;;10.80;80.30;;;;;;5062951;28;20430;-64
2023/10/17 08:03:17;;;;;;;5.13;2.20;;;10.80;80.20;;;;;;5044749;28;20101;-64
2023/10/17 08:05:45;;;;;;;2.05;1.75;;;10.80;80.10;;;;;;5042719;28;20128;-64
2023/10/17 08:08:14;;;;;;;4.22;1.63;;;10.90;80.10;;;;;;5061097;28;20036;-65
2023/10/17 08:10:45;;;;;;;4.68;2.38;;;10.90;80.00;;;;;;5058089;28;20351;-65
2023/10/17 08:13:12;;;;;;;3.78;1.60;;;11.00;80.00;;;;;;5050015;28;20071;-65
2023/10/17 08:15:52;;;;;;;5.20;1.98;;;11.00;79.90;;;;;;5064968;28;20369;-65
2023/10/17 08:18:22;;;;;;;3.05;1.92;;;11.00;79.80;;;;;;5058638;28;20025;-65
2023/10/17 08:23:23;;;;;;;2.75;1.77;;;11.10;79.80;;;;;;5062212;28;20041;-65
2023/10/17 08:25:59;;;;;;;3.38;2.00;;;11.20;79.80;;;;;;5056039;28;20115;-65
2023/10/17 08:31:22;;;;;;;2.75;2.03;;;11.30;79.60;;;;;;5060439;28;20091;-66
2023/10/17 08:36:47;;;;;;;3.38;2.38;;;11.50;79.60;;;;;;5066269;28;20036;-65
2023/10/17 08:39:51;;;;;;;4.43;2.50;;;11.50;79.50;;;;;;5058504;28;20025;-65
2023/10/17 08:42:12;;;;;;;4.68;1.85;;;11.60;79.50;;;;;;5049495;28;20128;-66
2023/10/17 08:44:41;;;;;;;3.85;2.17;;;11.60;79.40;;;;;;5057649;28;20123;-65
2023/10/17 08:47:08;;;;;;;7.18;2.40;;;11.70;79.10;;;;;;5064016;28;20332;-65
2023/10/17 08:49:33;;;;;;;4.75;2.63;;;11.80;79.00;;;;;;5066925;28;20032;-65
2023/10/17 08:51:59;;;;;;;4.32;2.55;;;11.90;78.90;;;;;;5062740;28;20043;-65
2023/10/17 08:54:28;;;;;;;4.78;2.35;;;12.00;78.80;;;;;;5065395;28;20090;-65
2023/10/17 08:56:54;;;;;;;3.63;2.33;;;12.10;78.60;;;;;;5064554;28;20111;-66
2023/10/17 08:59:32;;;;;;;3.90;1.88;;;12.20;78.50;;;;;;5067251;28;20032;-63
2023/10/17 09:02:14;;;;;;;3.88;2.15;;;12.30;78.50;;;;;;5044438;28;20448;-64
2023/10/17 09:04:46;;;;;;;2.78;2.00;;;12.40;78.30;;;;;;5059425;28;20041;-62
2023/10/17 09:07:23;;;;;;;3.85;1.77;;;12.50;78.10;;;;;;5065479;28;20040;-64
2023/10/17 09:09:55;;;;;;;3.42;2.15;;;12.60;77.80;;;;;;5064141;28;20025;-65
2023/10/17 09:12:24;;;;;;;3.80;1.77;;;12.90;77.60;;;;;;5050052;28;20033;-64
2023/10/17 09:14:52;;;;;;;5.03;2.22;;;13.00;77.40;;;;;;5063342;28;20468;-65
2023/10/17 09:19:52;;;;;;;2.80;2.17;;;13.40;76.70;;;;;;5070349;28;20029;-62
2023/10/17 09:22:24;;;;;;;3.67;2.40;;;13.50;76.40;;;;;;5067844;28;20263;-65
2023/10/17 09:24:51;;;;;;;3.38;2.42;;;13.70;75.90;;;;;;5070707;28;20090;-64
2023/10/17 09:27:19;;;;;;;1.88;1.52;;;13.80;75.90;;;;;;5065485;28;20387;-64
2023/10/17 09:29:50;;;;;;;3.90;3.00;;;13.90;75.70;;;;;;5069469;28;20039;-67
2023/10/17 09:32:36;;;;;;;3.80;1.92;;;14.00;75.20;;;;;;5062911;28;20554;-67
2023/10/17 09:35:04;;;;;;;3.15;1.80;;;13.90;75.00;;;;;;5051924;28;20020;-67
2023/10/17 09:37:32;;;;;;;2.05;1.55;;;13.90;75.20;;;;;;5064443;28;20301;-67
2023/10/17 09:40:03;;;;;;;2.65;1.92;;;13.90;75.40;;;;;;5067446;28;20471;-67
2023/10/17 09:42:29;;;;;;;4.18;2.35;;;14.00;75.30;;;;;;5067931;28;20024;-67
2023/10/17 09:44:56;;;;;;;4.38;2.30;;;14.20;75.10;;;;;;5055031;28;20052;-67
2023/10/17 09:47:25;;;;;;;2.50;1.67;;;14.30;74.60;;;;;;5065212;28;20067;-67
2023/10/17 09:49:55;;;;;;;2.20;1.58;;;14.40;74.40;;;;;;5068163;28;20043;-67
2023/10/17 09:52:25;;;;;;;2.63;1.80;;;14.50;74.20;;;;;;5068919;28;20074;-64
2023/10/17 09:54:51;;;;;;;4.85;2.13;;;14.60;74.00;;;;;;5067589;28;20056;-67
2023/10/17 09:57:20;;;;;;;2.47;1.60;;;14.60;73.50;;;;;;5069513;28;20029;-65
2023/10/17 10:00:27;;;;;;;3.65;1.55;;;14.70;73.30;;;;;;5050029;28;20035;-65
2023/10/17 10:02:54;;;;;;;3.13;1.67;;;14.70;73.00;;;;;;5045083;28;20514;-62
2023/10/17 10:05:25;;;;;;;4.00;1.42;;;14.70;73.10;;;;;;5063300;28;20039;-62
2023/10/17 10:07:52;;;;;;;3.75;2.35;;;14.60;73.10;;;;;;5067906;28;20471;-67
2023/10/17 10:10:44;;;;;;;4.13;1.92;;;14.60;73.10;;;;;;5067999;28;20322;-67
2023/10/17 10:13:15;;;;;;;3.10;2.28;;;14.80;72.40;;;;;;5064962;28;20027;-62
2023/10/17 10:16:01;;;;;;;2.30;1.58;;;14.90;71.60;;;;;;5058102;28;20414;-62
2023/10/17 10:18:35;;;;;;;2.15;1.65;;;15.20;71.70;;;;;;5067638;28;20031;-67
2023/10/17 10:21:07;;;;;;;5.47;1.63;;;15.30;71.20;;;;;;5061977;28;20036;-65
2023/10/17 10:23:37;;;;;;;3.97;1.58;;;15.50;70.90;;;;;;5044565;28;20499;-65
2023/10/17 10:26:11;;;;;;;1.88;1.40;;;15.70;70.30;;;;;;5059246;28;20031;-65
2023/10/17 10:28:41;;;;;;;3.17;1.50;;;15.80;70.10;;;;;;5061056;28;20028;-66
2023/10/17 10:31:33;;;;;;;1.98;1.35;;;15.80;70.20;;;;;;5038097;28;20115;-65
2023/10/17 10:33:59;;;;;;;2.78;1.38;;;15.70;70.30;;;;;;5065087;28;20111;-65
2023/10/17 10:36:26;;;;;;;3.78;1.70;;;15.40;70.60;;;;;;5066458;28;20552;-65
2023/10/17 10:38:54;;;;;;;2.90;1.13;;;15.30;70.30;;;;;;5061497;28;20074;-66
2023/10/17 10:41:23;;;;;;;1.05;0.88;;;15.20;70.90;;;;;;5065521;28;20643;-65
2023/10/17 10:43:57;;;;;;;2.60;1.67;;;15.30;70.80;;;;;;5064133;28;20036;-65
2023/10/17 10:46:22;;;;;;;1.75;1.33;;;15.30;70.30;;;;;;5063954;28;20026;-65
2023/10/17 10:48:51;;;;;;;3.08;1.75;;;15.40;70.00;;;;;;5059405;28;20133;-65
2023/10/17 10:51:17;;;;;;;1.73;1.45;;;15.40;69.40;;;;;;5062210;28;20491;-65
2023/10/17 10:53:54;;;;;;;2.25;1.10;;;15.30;69.60;;;;;;5059066;28;20024;-66
2023/10/17 10:56:22;;;;;;;4.65;1.38;;;15.30;69.40;;;;;;5066244;28;20036;-65
2023/10/17 10:58:56;;;;;;;1.95;1.00;;;15.20;69.40;;;;;;5062598;28;20021;-66
2023/10/17 11:01:22;;;;;;;2.78;1.60;;;15.20;69.70;;;;;;5062908;28;20028;-66
2023/10/17 11:03:50;;;;;;;5.70;0.98;;;15.10;69.70;;;;;;5063480;28;20064;-65
2023/10/17 11:06:23;;;;;;;2.22;1.98;;;15.30;69.60;;;;;;5063592;28;20039;-67
2023/10/17 11:08:49;;;;;;;2.28;1.42;;;15.50;69.50;;;;;;5061438;28;20028;-66
2023/10/17 11:11:19;;;;;;;3.30;1.52;;;15.80;69.20;;;;;;5068619;28;20076;-65
2023/10/17 11:13:48;;;;;;;2.70;1.35;;;16.20;67.50;;;;;;5067188;28;20075;-65
2023/10/17 11:16:19;;;;;;;2.55;1.05;;;16.60;67.10;;;;;;5067262;28;20031;-65
2023/10/17 11:18:45;;;;;;;2.70;1.33;;;16.90;66.50;;;;;;5067941;28;21053;-65
2023/10/17 11:21:12;;;;;;;1.10;0.88;;;17.10;65.80;;;;;;5050293;28;20028;-65
2023/10/17 11:23:50;;;;;;;1.92;1.33;;;17.30;65.20;;;;;;5066810;28;20028;-65
2023/10/17 11:26:21;;;;;;;1.83;1.13;;;17.40;64.20;;;;;;5066165;28;20042;-65
2023/10/17 11:28:47;;;;;;;2.67;1.65;;;17.40;63.40;;;;;;5059724;28;20029;-65
2023/10/17 11:31:21;;;;;;;2.35;1.40;;;17.40;63.40;;;;;;5066709;28;20443;-65
2023/10/17 11:33:55;;;;;;;1.20;1.10;;;17.50;63.70;;;;;;5063174;28;20074;-65
2023/10/17 11:36:22;;;;;;;1.40;1.30;;;17.70;63.40;;;;;;5060873;28;20020;-66
2023/10/17 11:38:58;;;;;;;2.13;1.05;;;17.80;62.70;;;;;;5065972;28;20043;-66
2023/10/17 11:41:59;;;;;;;0.93;0.90;;;17.90;62.20;;;;;;5064238;28;20458;-66
2023/10/17 11:44:16;;;;;;;2.85;1.30;;;18.10;62.20;;;;;;5062241;28;20037;-67
2023/10/17 11:46:55;;;;;;;1.23;0.80;;;18.30;61.70;;;;;;5049325;28;20027;-66
2023/10/17 11:49:27;;;;;;;1.85;1.33;;;18.40;61.50;;;;;;5051261;28;20040;-66
2023/10/17 11:52:09;;;;;;;1.10;1.00;;;18.50;61.00;;;;;;5067151;28;20504;-66
2023/10/17 11:54:55;;;;;;;1.05;0.90;;;18.60;60.00;;;;;;5066047;28;20036;-66
2023/10/17 11:57:25;;;;;;;1.77;1.10;;;18.70;60.10;;;;;;5063688;28;20021;-66
2023/10/17 12:02:47;;;;;;;2.63;1.25;;;18.60;59.40;;;;;;5062961;28;20119;-66
2023/10/17 12:05:22;;;;;;;2.60;1.02;;;18.50;59.50;;;;;;5066427;28;20419;-67
2023/10/17 12:07:57;;;;;;;2.08;1.30;;;18.40;59.70;;;;;;5064326;28;20025;-66
2023/10/17 12:10:26;;;;;;;1.90;0.80;;;18.40;59.60;;;;;;5049483;28;20071;-66
2023/10/17 12:12:52;;;;;;;1.25;0.77;;;18.30;59.40;;;;;;5048718;28;20078;-66
2023/10/17 12:15:20;;;;;;;2.60;1.10;;;18.20;60.10;;;;;;5060676;28;20116;-66
2023/10/17 12:17:48;;;;;;;0.90;0.85;;;18.20;60.30;;;;;;5065668;28;20086;-66
2023/10/17 12:20:14;;;;;;;0.88;0.70;;;18.20;60.10;;;;;;5064178;28;20514;-67
2023/10/17 12:22:40;;;;;;;0.95;0.68;;;18.20;60.20;;;;;;5058097;28;20090;-66
2023/10/17 12:25:09;;;;;;;0.93;0.93;;;18.20;59.70;;;;;;5061918;28;20036;-66
2023/10/17 12:27:35;;;;;;;1.00;0.80;;;18.10;59.90;;;;;;5067036;28;20474;-66
2023/10/17 12:30:01;;;;;;;0.90;0.90;;;18.30;60.60;;;;;;5060853;28;20025;-66
2023/10/17 12:32:27;;;;;;;0.85;0.80;;;18.50;59.80;;;;;;5043660;28;20410;-66
2023/10/17 12:34:55;;;;;;;0.73;0.70;;;18.60;59.00;;;;;;5066590;28;20029;-66
2023/10/17 12:37:21;;;;;;;1.48;0.50;;;18.60;58.70;;;;;;5064072;28;20048;-66
2023/10/17 12:39:47;;;;;;;1.17;1.08;;;18.70;58.70;;;;;;5043269;28;20025;-66
2023/10/17 12:42:13;;;;;;;0.63;0.63;;;18.90;58.20;;;;;;5060572;28;20119;-67
2023/10/17 12:44:39;;;;;;;1.88;0.77;;;18.90;57.80;;;;;;5063581;28;20033;-66
2023/10/17 12:47:05;;;;;;;1.50;0.75;;;19.10;57.80;;;;;;5044477;28;20032;-66
2023/10/17 12:49:31;;;;;;;0.85;0.85;;;19.80;56.80;;;;;;5060103;28;20024;-66
2023/10/17 12:51:57;;;;;;;1.80;0.60;;;20.20;54.90;;;;;;5057456;28;20356;-66
2023/10/17 12:54:26;;;;;;;0.75;0.68;;;19.90;54.90;;;;;;5065587;28;20031;-66
2023/10/17 12:56:52;;;;;;;1.40;0.85;;;19.60;55.30;;;;;;5065377;28;20037;-66
2023/10/17 12:59:18;;;;;;;2.80;0.82;;;19.20;55.70;;;;;;5059994;28;20029;-66
2023/10/17 13:01:44;;;;;;;1.75;0.93;;;18.80;56.30;;;;;;5066102;28;20109;-66
2023/10/17 13:04:09;;;;;;;1.40;0.90;;;18.60;57.20;;;;;;5069626;28;20056;-66
2023/10/17 13:06:36;;;;;;;1.83;1.17;;;18.60;57.30;;;;;;5065549;28;20123;-66
2023/10/17 13:09:01;;;;;;;3.85;1.10;;;18.60;57.00;;;;;;5068935;28;20097;-66
2023/10/17 13:11:28;;;;;;;1.33;1.10;;;18.50;56.90;;;;;;5069086;28;20032;-66
2023/10/17 13:13:54;;;;;;;0.98;0.90;;;18.40;56.90;;;;;;5063246;28;20029;-66
2023/10/17 13:16:23;;;;;;;3.78;0.60;;;18.50;57.30;;;;;;5063385;28;20025;-66
2023/10/17 13:18:50;;;;;;;2.05;0.85;;;18.50;57.20;;;;;;5066392;28;20462;-66
2023/10/17 13:21:17;;;;;;;1.55;0.90;;;19.00;57.00;;;;;;5069624;28;20028;-66
2023/10/17 13:23:44;;;;;;;0.50;0.50;;;20.00;56.00;;;;;;5068907;28;20139;-66
2023/10/17 13:26:15;;;;;;;1.25;0.80;;;21.10;53.30;;;;;;5064675;28;20029;-63
2023/10/17 13:28:41;;;;;;;0.82;0.63;;;21.40;51.50;;;;;;5071547;28;20534;-63
2023/10/17 13:31:14;;;;;;;0.88;0.50;;;21.10;51.70;;;;;;5066997;28;20055;-63
2023/10/17 13:33:49;;;;;;;1.55;0.73;;;20.70;52.20;;;;;;5061133;28;20730;-66
2023/10/17 13:36:20;;;;;;;0.65;0.60;;;20.80;52.90;;;;;;5047813;28;20024;-63
2023/10/17 13:38:45;;;;;;;1.38;0.65;;;22.60;49.80;;;;;;5061204;28;20029;-63
2023/10/17 13:41:11;;;;;;;1.33;0.80;;;24.60;46.30;;;;;;5064056;28;20040;-63
2023/10/17 13:43:41;;;;;;;0.60;0.60;;;26.00;43.90;;;;;;5052709;28;20497;-63
2023/10/17 13:46:12;;;;;;;0.45;0.45;;;27.40;42.60;;;;;;5065846;28;20497;-64
2023/10/17 13:48:38;;;;;;;1.50;0.38;;;28.40;41.00;;;;;;5057911;28;20535;-63
2023/10/17 13:51:06;;;;;;;0.70;0.70;;;29.20;39.80;;;;;;5062219;28;20032;-64
2023/10/17 13:53:33;;;;;;;0.80;0.47;;;29.90;38.70;;;;;;5064329;28;20035;-67
2023/10/17 13:55:59;;;;;;;0.55;0.55;;;30.40;38.00;;;;;;5069674;28;20112;-66
2023/10/17 13:58:24;;;;;;;0.60;0.60;;;30.80;37.10;;;;;;5067640;28;20111;-67
2023/10/17 14:00:54;;;;;;;0.60;0.60;;;30.50;36.70;;;;;;5068089;28;20031;-67
2023/10/17 14:03:22;;;;;;;1.70;0.80;;;29.70;36.90;;;;;;5061932;28;20163;-67
2023/10/17 14:05:48;;;;;;;0.52;0.40;;;29.20;37.70;;;;;;5056387;28;20040;-67
2023/10/17 14:08:18;;;;;;;1.27;0.45;;;29.40;37.70;;;;;;5048486;28;20438;-66
2023/10/17 14:10:46;;;;;;;0.80;0.57;;;29.50;37.20;;;;;;5064339;28;20368;-66
2023/10/17 14:13:13;;;;;;;0.80;0.55;;;29.50;36.90;;;;;;5065546;28;20025;-64
2023/10/17 14:15:39;;;;;;;4.63;0.70;;;29.60;36.60;;;;;;5058579;28;20028;-67
2023/10/17 14:18:16;;;;;;;0.60;0.60;;;29.30;36.20;;;;;;5064378;28;20019;-66
2023/10/17 14:21:06;;;;;;;0.60;0.60;;;28.80;36.60;;;;;;5044561;28;20036;-66
2023/10/17 14:23:45;;;;;;;0.70;0.70;;;28.60;37.30;;;;;;5061521;28;20032;-67
2023/10/17 14:26:11;;;;;;;0.60;0.60;;;28.60;36.90;;;;;;5055329;28;20098;-66
2023/10/17 14:28:37;;;;;;;3.28;0.65;;;28.40;36.90;;;;;;5048870;28;20072;-64
2023/10/17 14:31:06;;;;;;;0.40;0.40;;;28.00;37.10;;;;;;5063204;28;20032;-64
2023/10/17 14:33:32;;;;;;;0.52;0.52;;;27.80;37.70;;;;;;5067390;28;20082;-64
2023/10/17 14:36:09;;;;;;;4.40;0.75;;;27.70;37.70;;;;;;5062798;28;20078;-66
2023/10/17 14:38:35;;;;;;;0.65;0.50;;;27.90;37.70;;;;;;5063689;28;20412;-67
2023/10/17 14:41:11;;;;;;;1.02;0.80;;;28.10;37.30;;;;;;5059150;28;20033;-66
2023/10/17 14:43:43;;;;;;;0.65;0.65;;;28.30;37.10;;;;;;5047346;28;21042;-66
2023/10/17 14:46:12;;;;;;;;;;;28.60;36.60;;;;;;5062585;28;20049;-67
2023/10/17 14:48:39;;;;;;;0.98;0.60;;;28.70;36.30;;;;;;5066396;28;19927;-67
2023/10/17 14:51:04;;;;;;;0.82;0.77;;;28.90;36.20;;;;;;5060841;28;20476;-67
2023/10/17 14:53:30;;;;;;;0.60;0.50;;;28.90;35.50;;;;;;5059232;28;20040;-67
2023/10/17 14:55:57;;;;;;;1.55;0.90;;;28.60;35.80;;;;;;5057792;28;20104;-64
2023/10/17 14:58:24;;;;;;;1.05;0.50;;;28.30;36.40;;;;;;5067044;28;20033;-64
2023/10/17 15:00:52;;;;;;;0.50;0.50;;;28.00;36.90;;;;;;5050214;28;20033;-67
2023/10/17 15:03:19;;;;;;;0.68;0.65;;;27.60;37.30;;;;;;5061084;28;20045;-67
2023/10/17 15:05:44;;;;;;;0.77;0.70;;;27.20;37.60;;;;;;5057589;28;20024;-66
2023/10/17 15:08:11;;;;;;;0.85;0.60;;;26.70;37.90;;;;;;5061847;28;20055;-66
2023/10/17 15:10:39;;;;;;;2.75;0.98;;;26.00;39.00;;;;;;5064141;28;20047;-67
2023/10/17 15:13:04;;;;;;;1.05;0.80;;;25.20;38.90;;;;;;5063179;28;20123;-66
2023/10/17 15:15:31;;;;;;;0.50;0.50;;;24.50;40.00;;;;;;5062053;28;20531;-66
2023/10/17 15:17:57;;;;;;;1.00;0.88;;;23.80;41.20;;;;;;5062821;28;20027;-66
2023/10/17 15:20:25;;;;;;;0.93;0.77;;;23.10;42.20;;;;;;5064383;28;20040;-66